»·PEaware :: PSV130 KPSP-KLAS

PSV130 :: KPSP-KLAS

FLIGHT INFORMATION

Flight Status: Arrived
Operator:
Power Set Virtual (website)
More flights by this operator :: More flights under this callsign
Pilot: Anonymous 24489 (24489)
Aircraft: DEHAVILLAND DASH 8 400
(DH8D)
More flights by this aircraft type
Origin: KPSP Palm Springs Intl
United States
Destination: KLAS McCarran Intl
United States
More flights between these airports :: More routes between these airports
Route: +CATH1 PSP V370 TNP KEPEC6
File this flight plan on PilotEdge
Remarks: RMK / SIMBRIEF
Altitude:
(Current/Filed)
17,000ft
Speed:
(Current/Filed)
328kts
Departed: 28-Jun-20 08:15 PM
Arrived: 28-Jun-20 09:05 PM
Distance/Time
Traveled:
151nm/0:50
Distance/Time
To Go:
Arrived

Flight Plot

Page will automatically refresh every two minutes.

Flight plan parsing failed; only flown route is shown


Map Options




Map Legend


Flown Route
Filed Route
Departure Airport
Arrival Airport
Navaid (VOR, NDB)
Fix

Horizontal Profiles

Position Reports

Time Latitude Longitude Heading Altitude Ground
Speed
28-Jun-20 19:33 33.823418 -116.505900 245 484ft 0kts
28-Jun-20 19:34 33.823418 -116.505900 245 484ft 0kts
28-Jun-20 19:35 33.823418 -116.505900 245 484ft 0kts
28-Jun-20 19:36 33.823418 -116.505900 245 484ft 0kts
28-Jun-20 19:37 33.823418 -116.505900 245 484ft 0kts
28-Jun-20 19:43 33.823122 -116.505782 285 484ft 0kts
28-Jun-20 19:44 33.823122 -116.505782 285 484ft 0kts
28-Jun-20 19:45 33.823122 -116.505782 285 484ft 0kts
28-Jun-20 19:46 33.823122 -116.505782 285 484ft 0kts
28-Jun-20 19:47 33.823122 -116.505782 285 484ft 0kts
28-Jun-20 19:48 33.823122 -116.505782 285 484ft 0kts
28-Jun-20 19:49 33.823122 -116.505782 285 484ft 0kts
28-Jun-20 19:50 33.823122 -116.505782 285 484ft 0kts
28-Jun-20 19:51 33.823122 -116.505782 285 484ft 0kts
28-Jun-20 19:52 33.823122 -116.505782 285 484ft 0kts
28-Jun-20 19:53 33.823122 -116.505782 285 484ft 0kts
28-Jun-20 19:54 33.823122 -116.505782 285 484ft 0kts
28-Jun-20 19:55 33.823122 -116.505782 285 484ft 0kts
28-Jun-20 19:56 33.823122 -116.505782 285 484ft 0kts
28-Jun-20 19:57 33.823122 -116.505782 285 484ft 0kts
28-Jun-20 19:58 33.823122 -116.505782 285 484ft 0kts
28-Jun-20 19:59 33.823122 -116.505782 285 484ft 0kts
28-Jun-20 20:00 33.823122 -116.505782 285 484ft 0kts
28-Jun-20 20:01 33.823122 -116.505782 285 484ft 0kts
28-Jun-20 20:02 33.823122 -116.505782 285 484ft 0kts
28-Jun-20 20:03 33.823122 -116.505782 285 484ft 0kts
28-Jun-20 20:04 33.823122 -116.505782 285 484ft 0kts
28-Jun-20 20:05 33.823009 -116.505152 270 484ft 0kts
28-Jun-20 20:06 33.823009 -116.505152 270 484ft 0kts
28-Jun-20 20:07 33.822906 -116.505155 139 484ft 1kts
28-Jun-20 20:08 33.822831 -116.503632 142 484ft 9kts
28-Jun-20 20:09 33.821703 -116.502625 143 484ft 5kts
28-Jun-20 20:10 33.819382 -116.500570 143 484ft 17kts
28-Jun-20 20:11 33.818518 -116.499051 87 484ft 0kts
28-Jun-20 20:12 33.818518 -116.499051 87 484ft 0kts
28-Jun-20 20:13 33.818631 -116.498457 53 484ft 8kts
28-Jun-20 20:14 33.833820 -116.511507 322 690ft 147kts
28-Jun-20 20:15 33.871271 -116.499571 59 2578ft 196kts
28-Jun-20 20:16 33.869550 -116.431293 113 4031ft 226kts
28-Jun-20 20:17 33.860355 -116.355617 64 5395ft 243kts
28-Jun-20 20:18 33.889611 -116.285805 62 7048ft 234kts
28-Jun-20 20:19 33.916994 -116.219550 62 8765ft 209kts
28-Jun-20 20:20 33.940774 -116.160227 57 10382ft 186kts
28-Jun-20 20:21 33.972602 -116.093390 58 10232ft 256kts
28-Jun-20 20:22 34.003097 -116.022080 58 11694ft 242kts
28-Jun-20 20:23 34.034790 -115.948417 57 12465ft 260kts
28-Jun-20 20:24 34.068971 -115.870342 58 13319ft 275kts
28-Jun-20 20:25 34.103897 -115.789922 59 14433ft 279kts
28-Jun-20 20:26 34.153659 -115.722351 37 15618ft 278kts
28-Jun-20 20:27 34.209480 -115.661073 38 16870ft 286kts
28-Jun-20 20:28 34.268837 -115.594158 39 17060ft 316kts
28-Jun-20 20:29 34.334935 -115.525369 23 17064ft 331kts
28-Jun-20 20:30 34.418945 -115.489115 14 17056ft 337kts
28-Jun-20 20:31 34.504809 -115.451800 15 17046ft 343kts
28-Jun-20 20:32 34.591593 -115.413686 14 17034ft 345kts
28-Jun-20 20:33 34.679610 -115.375348 15 17019ft 347kts
28-Jun-20 20:34 34.767796 -115.337928 6 17007ft 344kts
28-Jun-20 20:35 34.854755 -115.356613 335 16986ft 329kts
28-Jun-20 20:36 34.939134 -115.390269 336 16985ft 330kts
28-Jun-20 20:37 35.023595 -115.423059 336 16985ft 330kts
28-Jun-20 20:38 35.109494 -115.456828 336 16351ft 346kts
28-Jun-20 20:39 35.199404 -115.491869 336 14534ft 343kts
28-Jun-20 20:40 35.285510 -115.525543 336 12693ft 329kts
28-Jun-20 20:41 35.364626 -115.556453 334 12995ft 292kts
28-Jun-20 20:42 35.441967 -115.587353 334 13069ft 308kts
28-Jun-20 20:43 35.523149 -115.619460 335 13071ft 317kts
28-Jun-20 20:44 35.606646 -115.652430 335 13069ft 322kts
28-Jun-20 20:45 35.693561 -115.652729 26 13070ft 352kts
28-Jun-20 20:47 35.765621 -115.575468 18 13062ft 349kts
28-Jun-20 20:48 35.852570 -115.569551 352 13058ft 308kts
28-Jun-20 20:49 35.931933 -115.565899 359 13018ft 300kts
28-Jun-20 20:50 35.992180 -115.498682 64 12177ft 316kts
28-Jun-20 20:51 36.023551 -115.400762 68 11267ft 312kts
28-Jun-20 20:52 36.026664 -115.296403 101 10134ft 295kts
28-Jun-20 20:53 36.018761 -115.200465 102 9006ft 277kts
28-Jun-20 20:54 36.012140 -115.107062 101 8290ft 272kts
28-Jun-20 20:55 36.006192 -115.014973 100 8055ft 265kts
28-Jun-20 20:56 36.001586 -114.922221 87 8045ft 275kts
28-Jun-20 20:57 36.053626 -114.873645 353 6397ft 248kts
28-Jun-20 20:58 36.113495 -114.884296 303 4940ft 173kts
28-Jun-20 20:59 36.103304 -114.926960 222 5023ft 142kts
28-Jun-20 21:00 36.080672 -114.961823 249 4850ft 129kts
28-Jun-20 21:01 36.076689 -115.003655 261 3988ft 119kts
28-Jun-20 21:02 36.075311 -115.043116 258 3591ft 121kts
28-Jun-20 21:02 36.073633 -115.077267 259 2887ft 108kts
28-Jun-20 21:04 36.073633 -115.120013 262 2320ft 105kts
28-Jun-20 21:05 36.073676 -115.140799 272 2188ft 23kts
28-Jun-20 21:05 36.074698 -115.145868 296 2188ft 14kts
28-Jun-20 21:07 36.079066 -115.147442 348 2188ft 0kts
28-Jun-20 21:07 36.080167 -115.147482 57 2188ft 6kts
28-Jun-20 21:08 36.080261 -115.147286 59 2188ft 0kts
28-Jun-20 21:09 36.080261 -115.147286 59 2188ft 0kts
28-Jun-20 21:10 36.080261 -115.147286 59 2188ft 0kts
28-Jun-20 21:11 36.080261 -115.147286 59 2188ft 0kts
28-Jun-20 21:12 36.080261 -115.147286 59 2188ft 0kts
28-Jun-20 21:13 36.080261 -115.147286 59 2188ft 0kts

Navigation Log

Ident Type
Flight plan parsing failed, navigation log unavailable